createdAt,value
2022-10-30T00:02:23.986Z,20.20
2022-10-30T00:04:53.161Z,20.10
2022-10-30T00:07:20.911Z,20.10
2022-10-30T00:09:48.715Z,20.10
2022-10-30T00:12:16.462Z,20.10
2022-10-30T00:14:44.232Z,20.10
2022-10-30T00:17:12.262Z,20.10
2022-10-30T00:19:40.022Z,20.10
2022-10-30T00:22:09.232Z,20.10
2022-10-30T00:24:37.009Z,20.10
2022-10-30T00:27:05.083Z,20.10
2022-10-30T00:29:32.897Z,20.00
2022-10-30T00:32:00.665Z,20.00
2022-10-30T00:34:28.451Z,20.00
2022-10-30T00:36:56.228Z,20.00
2022-10-30T00:39:25.348Z,19.90
2022-10-30T00:41:53.472Z,19.90
2022-10-30T00:44:39.090Z,19.90
2022-10-30T00:47:12.000Z,19.90
2022-10-30T00:49:46.214Z,19.90
2022-10-30T00:52:14.211Z,19.90
2022-10-30T00:54:43.577Z,19.90
2022-10-30T00:57:11.559Z,19.90
2022-10-30T00:59:39.642Z,19.80
2022-10-30T01:02:08.860Z,19.80
2022-10-30T01:04:39.975Z,19.70
2022-10-30T01:07:11.708Z,19.70
2022-10-30T01:09:40.511Z,19.70
2022-10-30T01:12:10.588Z,19.70
2022-10-30T01:14:42.113Z,19.60
2022-10-30T01:17:36.538Z,19.70
2022-10-30T01:20:19.082Z,19.60
2022-10-30T01:22:59.050Z,19.60
2022-10-30T01:25:39.380Z,19.60
2022-10-30T01:28:21.810Z,19.60
2022-10-30T01:31:03.025Z,19.50
2022-10-30T01:33:40.225Z,19.50
2022-10-30T01:36:18.430Z,19.50
2022-10-30T01:38:51.209Z,19.40
2022-10-30T01:41:19.546Z,19.40
2022-10-30T01:43:51.812Z,19.40
2022-10-30T01:46:39.922Z,19.40
2022-10-30T01:52:06.345Z,19.40
2022-10-30T01:54:40.398Z,19.40
2022-10-30T01:57:17.082Z,19.40
2022-10-30T01:59:50.825Z,19.40
2022-10-30T02:02:19.098Z,19.50
2022-10-30T02:04:47.139Z,19.40
2022-10-30T02:07:14.935Z,19.40
2022-10-30T02:09:43.158Z,19.40
2022-10-30T02:12:11.321Z,19.30
2022-10-30T02:14:44.573Z,19.30
2022-10-30T02:17:14.378Z,19.40
2022-10-30T02:19:42.735Z,19.40
2022-10-30T02:22:12.794Z,19.40
2022-10-30T02:24:40.658Z,19.30
2022-10-30T02:27:08.409Z,19.40
2022-10-30T02:29:36.216Z,19.40
2022-10-30T02:32:04.374Z,19.30
2022-10-30T02:34:32.153Z,19.30
2022-10-30T02:36:59.953Z,19.30
2022-10-30T02:39:29.094Z,19.30
2022-10-30T02:41:56.863Z,19.30
2022-10-30T02:44:24.592Z,19.20
2022-10-30T02:46:52.342Z,19.30
2022-10-30T02:49:20.109Z,19.20
2022-10-30T02:51:47.888Z,19.20
2022-10-30T02:54:15.620Z,19.20
2022-10-30T02:56:44.743Z,19.20
2022-10-30T02:59:12.497Z,19.10
2022-10-30T03:01:40.400Z,19.10
2022-10-30T03:04:08.215Z,19.00
2022-10-30T03:06:36.145Z,19.00
2022-10-30T03:09:04.321Z,19.00
2022-10-30T03:11:32.049Z,19.00
2022-10-30T03:14:01.268Z,19.00
2022-10-30T03:16:30.715Z,18.90
2022-10-30T03:18:59.156Z,18.90
2022-10-30T03:21:28.437Z,18.80
2022-10-30T03:23:56.610Z,18.80
2022-10-30T03:26:24.713Z,18.80
2022-10-30T03:28:52.686Z,18.70
2022-10-30T03:31:22.091Z,18.70
2022-10-30T03:33:49.874Z,18.70
2022-10-30T03:36:17.869Z,18.70
2022-10-30T03:38:45.671Z,18.60
2022-10-30T03:41:13.578Z,18.60
2022-10-30T03:43:41.317Z,18.70
2022-10-30T03:46:11.352Z,18.70
2022-10-30T03:48:40.442Z,18.60
2022-10-30T03:51:08.215Z,18.70
2022-10-30T03:53:36.230Z,18.60
2022-10-30T03:56:05.836Z,18.70
2022-10-30T03:58:33.624Z,18.60
2022-10-30T04:01:05.531Z,18.60
2022-10-30T04:03:33.770Z,18.60
2022-10-30T04:06:03.294Z,18.50
2022-10-30T04:08:31.108Z,18.50
2022-10-30T04:10:58.955Z,18.40
2022-10-30T04:13:26.870Z,18.40
2022-10-30T04:15:57.882Z,18.50
2022-10-30T04:18:26.778Z,18.50
2022-10-30T04:20:54.706Z,18.50
2022-10-30T04:23:23.939Z,18.40
2022-10-30T04:25:52.147Z,18.40
2022-10-30T04:28:21.172Z,18.40
2022-10-30T04:30:49.057Z,18.40
2022-10-30T04:33:16.803Z,18.40
2022-10-30T04:35:45.047Z,18.50
2022-10-30T04:38:14.982Z,18.50
2022-10-30T04:40:45.119Z,18.50
2022-10-30T04:43:13.879Z,18.50
2022-10-30T04:45:42.629Z,18.40
2022-10-30T04:48:12.995Z,18.40
2022-10-30T04:50:41.151Z,18.40
2022-10-30T04:53:12.795Z,18.30
2022-10-30T04:55:40.570Z,18.40
2022-10-30T04:58:11.347Z,18.30
2022-10-30T05:00:39.440Z,18.30
2022-10-30T05:03:07.229Z,18.30
2022-10-30T05:05:35.002Z,18.20
2022-10-30T05:08:02.976Z,18.20
2022-10-30T05:10:30.878Z,18.20
2022-10-30T05:13:00.029Z,18.10
2022-10-30T05:15:29.736Z,18.10
2022-10-30T05:17:57.953Z,18.10
2022-10-30T05:20:26.017Z,18.00
2022-10-30T05:22:57.801Z,18.00
2022-10-30T05:25:26.016Z,18.00
2022-10-30T05:27:59.510Z,17.90
2022-10-30T05:30:30.651Z,17.90
2022-10-30T05:33:01.759Z,17.90
2022-10-30T05:35:30.069Z,17.90
2022-10-30T05:37:57.960Z,17.90
2022-10-30T05:40:25.828Z,17.80
2022-10-30T05:42:53.793Z,17.80
2022-10-30T05:45:21.782Z,17.80
2022-10-30T05:47:57.936Z,17.70
2022-10-30T05:50:26.374Z,17.70
2022-10-30T05:52:56.736Z,17.70
2022-10-30T05:55:24.753Z,17.80
2022-10-30T05:57:57.281Z,17.70
2022-10-30T06:00:25.982Z,17.80
2022-10-30T06:02:53.808Z,17.80
2022-10-30T06:05:22.916Z,17.80
2022-10-30T06:07:50.683Z,17.80
2022-10-30T06:10:18.514Z,17.90
2022-10-30T06:12:53.553Z,17.80
2022-10-30T06:15:21.770Z,17.90
2022-10-30T06:17:49.556Z,17.90
2022-10-30T06:20:19.163Z,17.90
2022-10-30T06:22:55.916Z,17.90
2022-10-30T06:25:23.934Z,17.90
2022-10-30T06:27:51.967Z,17.90
2022-10-30T06:30:20.426Z,17.90
2022-10-30T06:32:48.382Z,17.90
2022-10-30T06:35:16.480Z,17.90
2022-10-30T06:37:47.697Z,17.90
2022-10-30T06:40:17.283Z,17.90
2022-10-30T06:42:45.638Z,17.90
2022-10-30T06:45:14.763Z,17.90
2022-10-30T06:47:42.923Z,17.90
2022-10-30T06:50:13.792Z,17.90
2022-10-30T06:52:41.538Z,18.00
2022-10-30T06:55:10.425Z,18.00
2022-10-30T06:57:39.864Z,18.00
2022-10-30T07:00:09.282Z,18.20
2022-10-30T07:02:37.095Z,18.00
2022-10-30T07:05:05.052Z,18.00
2022-10-30T07:07:32.955Z,18.00
2022-10-30T07:10:00.716Z,18.00
2022-10-30T07:12:28.494Z,18.10
2022-10-30T07:14:57.532Z,18.10
2022-10-30T07:17:25.324Z,18.10
2022-10-30T07:19:53.608Z,18.10
2022-10-30T07:22:21.394Z,18.10
2022-10-30T07:24:49.155Z,18.20
2022-10-30T07:27:16.933Z,18.20
2022-10-30T07:29:44.686Z,18.30
2022-10-30T07:32:14.499Z,18.30
2022-10-30T07:34:42.230Z,18.30
2022-10-30T07:37:10.033Z,18.30
2022-10-30T07:39:37.751Z,18.40
2022-10-30T07:42:05.647Z,18.40
2022-10-30T07:44:33.416Z,18.40
2022-10-30T07:47:01.182Z,18.50
2022-10-30T07:49:30.290Z,18.50
2022-10-30T07:51:58.040Z,18.50
2022-10-30T07:54:25.782Z,18.60
2022-10-30T07:56:53.557Z,18.60
2022-10-30T07:59:21.387Z,18.70
2022-10-30T08:01:49.806Z,18.70
2022-10-30T08:04:17.698Z,18.70
2022-10-30T08:06:46.836Z,18.80
2022-10-30T08:09:14.695Z,18.80
2022-10-30T08:11:42.467Z,18.80
2022-10-30T08:14:10.250Z,18.90
2022-10-30T08:16:38.037Z,18.90
2022-10-30T08:19:05.881Z,18.90
2022-10-30T08:21:34.051Z,18.70
2022-10-30T08:24:03.170Z,19.00
2022-10-30T08:26:30.922Z,19.00
2022-10-30T08:28:58.671Z,19.00
2022-10-30T08:31:26.483Z,19.00
2022-10-30T08:33:54.242Z,19.10
2022-10-30T08:36:22.005Z,19.20
2022-10-30T08:38:49.783Z,19.20
2022-10-30T08:41:18.840Z,19.20
2022-10-30T08:43:46.598Z,19.20
2022-10-30T08:46:14.371Z,19.30
2022-10-30T08:48:42.135Z,19.30
2022-10-30T08:51:09.893Z,19.40
2022-10-30T08:53:37.615Z,19.40
2022-10-30T08:56:06.251Z,19.40
2022-10-30T08:58:35.406Z,19.40
2022-10-30T09:01:03.248Z,19.40
2022-10-30T09:03:31.015Z,19.50
2022-10-30T09:06:01.106Z,19.50
2022-10-30T09:08:29.755Z,19.50
2022-10-30T09:10:58.117Z,19.60
2022-10-30T09:13:26.405Z,19.50
2022-10-30T09:15:55.580Z,19.60
2022-10-30T09:18:23.323Z,19.70
2022-10-30T09:20:51.079Z,19.70
2022-10-30T09:23:18.831Z,19.80
2022-10-30T09:25:46.603Z,19.80
2022-10-30T09:28:14.509Z,19.80
2022-10-30T09:30:42.281Z,19.80
2022-10-30T09:33:11.634Z,19.90
2022-10-30T09:35:39.401Z,20.00
2022-10-30T09:38:07.174Z,20.10
2022-10-30T09:40:45.385Z,20.10
2022-10-30T09:43:25.557Z,20.20
2022-10-30T09:46:19.921Z,20.30
2022-10-30T09:49:12.250Z,20.40
2022-10-30T09:52:09.230Z,20.50
2022-10-30T09:54:49.242Z,20.70
2022-10-30T09:57:24.446Z,20.70
2022-10-30T10:00:04.437Z,20.80
2022-10-30T10:02:36.609Z,20.70
2022-10-30T10:05:13.850Z,20.80
2022-10-30T10:07:45.924Z,20.90
2022-10-30T10:10:21.077Z,21.00
2022-10-30T10:12:50.777Z,21.00
2022-10-30T10:15:29.232Z,21.20
2022-10-30T10:17:59.750Z,21.30
2022-10-30T10:20:33.966Z,21.30
2022-10-30T10:23:07.388Z,21.30
2022-10-30T10:25:36.828Z,21.30
2022-10-30T10:28:22.651Z,21.30
2022-10-30T10:30:57.255Z,21.30
2022-10-30T10:33:35.207Z,21.30
2022-10-30T10:36:12.872Z,21.30
2022-10-30T10:38:59.986Z,21.20
2022-10-30T10:41:37.191Z,21.20
2022-10-30T10:44:21.159Z,21.30
2022-10-30T10:47:13.454Z,21.30
2022-10-30T10:49:56.129Z,21.40
2022-10-30T10:52:30.411Z,21.30
2022-10-30T10:55:02.334Z,21.30
2022-10-30T10:57:35.553Z,21.30
2022-10-30T11:00:07.428Z,21.30
2022-10-30T11:02:41.378Z,21.30
2022-10-30T11:05:18.068Z,21.40
2022-10-30T11:07:49.786Z,21.40
2022-10-30T11:10:20.686Z,21.40
2022-10-30T11:12:48.497Z,21.40
2022-10-30T11:15:27.504Z,21.40
2022-10-30T11:18:00.929Z,21.50
2022-10-30T11:20:39.258Z,21.40
2022-10-30T11:23:31.824Z,21.50
2022-10-30T11:25:59.604Z,21.50
2022-10-30T11:28:37.248Z,21.50
2022-10-30T11:31:22.481Z,21.60
2022-10-30T11:33:50.947Z,21.60
2022-10-30T11:36:22.558Z,21.60
2022-10-30T11:38:52.162Z,21.60
2022-10-30T11:41:21.540Z,21.70
2022-10-30T11:43:50.166Z,21.60
2022-10-30T11:46:24.211Z,21.70
2022-10-30T11:48:54.878Z,21.70
2022-10-30T11:51:39.129Z,21.70
2022-10-30T11:54:16.052Z,21.70
2022-10-30T11:56:48.866Z,21.70
2022-10-30T11:59:23.053Z,21.80
2022-10-30T12:02:02.775Z,21.80
2022-10-30T12:04:32.967Z,21.60
2022-10-30T12:07:20.280Z,21.70
2022-10-30T12:09:49.880Z,21.70
2022-10-30T12:12:24.540Z,21.70
2022-10-30T12:14:53.692Z,21.70
2022-10-30T12:17:22.699Z,21.60
2022-10-30T12:19:52.309Z,21.60
2022-10-30T12:22:30.099Z,21.50
2022-10-30T12:25:01.120Z,21.50
2022-10-30T12:27:31.126Z,21.30
2022-10-30T12:30:09.653Z,21.30
2022-10-30T12:32:45.991Z,21.40
2022-10-30T12:35:26.005Z,21.30
2022-10-30T12:37:55.741Z,21.40
2022-10-30T12:40:29.526Z,21.30
2022-10-30T12:43:04.779Z,21.40
2022-10-30T12:45:38.522Z,21.40
2022-10-30T12:48:16.638Z,21.40
2022-10-30T12:50:51.343Z,21.40
2022-10-30T12:53:27.967Z,21.40
2022-10-30T12:56:01.926Z,21.40
2022-10-30T12:58:40.279Z,21.40
2022-10-30T13:01:17.330Z,21.40
2022-10-30T13:03:53.065Z,21.40
2022-10-30T13:06:27.481Z,21.40
2022-10-30T13:09:05.831Z,21.50
2022-10-30T13:11:43.239Z,21.50
2022-10-30T13:14:17.331Z,21.50
2022-10-30T13:16:45.149Z,21.50
2022-10-30T13:19:14.022Z,21.50
2022-10-30T13:21:49.954Z,21.50
2022-10-30T13:24:25.480Z,21.60
2022-10-30T13:27:00.097Z,21.70
2022-10-30T13:29:34.405Z,21.70
2022-10-30T13:32:24.649Z,21.70
2022-10-30T13:34:59.102Z,21.90
2022-10-30T13:37:32.946Z,21.90
2022-10-30T13:40:14.527Z,21.90
2022-10-30T13:42:58.112Z,21.80
2022-10-30T13:45:48.571Z,21.80
2022-10-30T13:48:25.429Z,21.60
2022-10-30T13:51:14.034Z,21.60
2022-10-30T13:53:45.905Z,21.50
2022-10-30T13:56:18.400Z,21.40
2022-10-30T13:58:56.421Z,21.40
2022-10-30T14:01:28.934Z,21.30
2022-10-30T14:04:04.487Z,21.30
2022-10-30T14:06:40.302Z,21.20
2022-10-30T14:09:16.427Z,21.20
2022-10-30T14:11:44.192Z,21.10
2022-10-30T14:14:29.968Z,21.10
2022-10-30T14:17:14.266Z,21.00
2022-10-30T14:20:22.986Z,21.00
2022-10-30T14:23:09.702Z,21.00
2022-10-30T14:25:37.876Z,21.00
2022-10-30T14:28:06.601Z,21.00
2022-10-30T14:30:36.737Z,20.90
2022-10-30T14:33:04.597Z,20.90
2022-10-30T14:35:38.748Z,20.80
2022-10-30T14:38:27.726Z,20.70
2022-10-30T14:41:19.999Z,20.70
2022-10-30T14:44:10.626Z,20.70
2022-10-30T14:46:55.378Z,20.70
2022-10-30T14:49:42.062Z,20.70
2022-10-30T14:52:30.624Z,20.60
2022-10-30T14:55:09.783Z,20.50
2022-10-30T14:57:52.065Z,20.40
2022-10-30T15:00:41.266Z,20.40
2022-10-30T15:03:36.988Z,20.30
2022-10-30T15:06:15.467Z,20.30
2022-10-30T15:09:06.453Z,20.10
2022-10-30T15:12:07.221Z,20.00
2022-10-30T15:14:52.992Z,19.90
2022-10-30T15:17:28.568Z,19.90
2022-10-30T15:19:59.001Z,20.00
2022-10-30T15:22:29.879Z,20.10
2022-10-30T15:24:59.107Z,20.00
2022-10-30T15:27:27.612Z,20.00
2022-10-30T15:29:57.724Z,20.10
2022-10-30T15:32:26.593Z,20.20
2022-10-30T15:34:57.858Z,20.20
2022-10-30T15:37:25.677Z,20.30
2022-10-30T15:40:11.686Z,20.30
2022-10-30T15:42:40.181Z,20.30
2022-10-30T15:45:17.525Z,20.30
2022-10-30T15:47:48.601Z,20.30
2022-10-30T15:50:19.963Z,20.30
2022-10-30T15:52:48.059Z,20.30
2022-10-30T15:55:18.043Z,20.30
2022-10-30T15:58:12.948Z,20.30
2022-10-30T16:00:39.486Z,20.30
2022-10-30T16:03:08.980Z,20.30
2022-10-30T16:05:38.282Z,20.30
2022-10-30T16:08:13.427Z,20.20
2022-10-30T16:10:44.017Z,20.20
2022-10-30T16:13:15.934Z,20.20
2022-10-30T16:15:47.276Z,20.20
2022-10-30T16:18:19.724Z,20.20
2022-10-30T16:20:51.707Z,20.20
2022-10-30T16:23:21.136Z,20.20
2022-10-30T16:25:54.145Z,20.20
2022-10-30T16:28:28.068Z,20.20
2022-10-30T16:30:57.481Z,20.10
2022-10-30T16:33:28.289Z,20.10
2022-10-30T16:35:58.114Z,20.20
2022-10-30T16:38:29.009Z,20.20
2022-10-30T16:40:57.420Z,20.10
2022-10-30T16:43:28.580Z,20.10
2022-10-30T16:45:58.457Z,20.10
2022-10-30T16:48:30.076Z,20.10
2022-10-30T16:51:02.947Z,20.10
2022-10-30T16:53:31.870Z,20.10
2022-10-30T16:56:00.708Z,20.10
2022-10-30T16:58:31.408Z,20.00
2022-10-30T17:01:05.444Z,20.00
2022-10-30T17:03:37.577Z,20.00
2022-10-30T17:06:08.961Z,20.00
2022-10-30T17:08:44.135Z,20.00
2022-10-30T17:11:20.019Z,19.80
2022-10-30T17:13:59.970Z,19.90
2022-10-30T17:16:29.277Z,19.90
2022-10-30T17:18:58.893Z,19.90
2022-10-30T17:21:31.115Z,19.90
2022-10-30T17:24:00.720Z,19.80
2022-10-30T17:26:29.742Z,19.80
2022-10-30T17:28:57.531Z,19.80
2022-10-30T17:31:43.069Z,19.70
2022-10-30T17:34:19.029Z,19.50
2022-10-30T17:36:49.811Z,19.50
2022-10-30T17:39:17.634Z,19.50
2022-10-30T17:41:46.104Z,19.60
2022-10-30T17:44:20.294Z,19.60
2022-10-30T17:46:48.324Z,19.60
2022-10-30T17:49:25.223Z,19.50
2022-10-30T17:51:54.772Z,19.50
2022-10-30T17:54:23.106Z,19.40
2022-10-30T17:56:51.248Z,19.50
2022-10-30T17:59:19.083Z,19.40
2022-10-30T18:01:48.810Z,19.40
2022-10-30T18:04:21.507Z,19.40
2022-10-30T18:06:50.272Z,19.40
2022-10-30T18:09:19.375Z,19.30
2022-10-30T18:11:47.205Z,19.40
2022-10-30T18:14:15.002Z,19.30
2022-10-30T18:16:42.765Z,19.30
2022-10-30T18:19:12.270Z,19.40
2022-10-30T18:21:40.140Z,19.30
2022-10-30T18:24:12.772Z,19.20
2022-10-30T18:26:42.728Z,19.20
2022-10-30T18:29:10.891Z,19.20
2022-10-30T18:31:39.715Z,19.20
2022-10-30T18:34:14.974Z,19.10
2022-10-30T18:36:43.076Z,19.10
2022-10-30T18:39:12.860Z,19.00
2022-10-30T18:41:44.511Z,19.00
2022-10-30T18:44:15.724Z,19.00
2022-10-30T18:46:43.767Z,19.00
2022-10-30T18:49:11.740Z,19.00
2022-10-30T18:51:40.274Z,19.00
2022-10-30T18:54:14.475Z,18.90
2022-10-30T18:56:43.708Z,18.90
2022-10-30T18:59:11.546Z,19.00
2022-10-30T19:01:39.590Z,18.90
2022-10-30T19:04:10.390Z,18.90
2022-10-30T19:06:38.745Z,18.90
2022-10-30T19:09:07.109Z,18.80
2022-10-30T19:11:37.327Z,18.80
2022-10-30T19:14:12.543Z,18.90
2022-10-30T19:16:40.540Z,18.80
2022-10-30T19:19:08.594Z,18.80
2022-10-30T19:21:37.163Z,18.80
2022-10-30T19:24:13.262Z,18.80
2022-10-30T19:26:41.122Z,18.80
2022-10-30T19:29:10.317Z,18.70
2022-10-30T19:31:38.131Z,18.70
2022-10-30T19:34:06.040Z,18.70
2022-10-30T19:36:36.131Z,18.60
2022-10-30T19:39:09.080Z,18.60
2022-10-30T19:41:37.421Z,18.50
2022-10-30T19:44:05.611Z,18.60
2022-10-30T19:46:34.851Z,18.50
2022-10-30T19:49:07.819Z,18.50
2022-10-30T19:51:35.665Z,18.50
2022-10-30T19:54:03.422Z,18.60
2022-10-30T19:56:31.183Z,18.50
2022-10-30T19:58:59.053Z,18.50
2022-10-30T20:01:26.976Z,18.50
2022-10-30T20:03:56.227Z,18.60
2022-10-30T20:06:24.065Z,18.60
2022-10-30T20:08:51.823Z,18.60
2022-10-30T20:11:19.740Z,18.60
2022-10-30T20:13:50.641Z,18.50
2022-10-30T20:16:21.702Z,18.50
2022-10-30T20:18:50.828Z,18.50
2022-10-30T20:21:20.701Z,18.50
2022-10-30T20:23:48.526Z,18.40
2022-10-30T20:26:25.067Z,18.40
2022-10-30T20:28:53.693Z,18.40
2022-10-30T20:31:21.624Z,18.30
2022-10-30T20:33:49.384Z,18.30
2022-10-30T20:36:17.107Z,18.30
2022-10-30T20:38:46.201Z,18.30
2022-10-30T20:41:22.891Z,18.20
2022-10-30T20:43:51.089Z,18.20
2022-10-30T20:46:19.869Z,18.20
2022-10-30T20:48:47.995Z,18.00
2022-10-30T20:51:16.242Z,18.10
2022-10-30T20:53:44.031Z,18.10
2022-10-30T20:56:13.099Z,18.00
2022-10-30T20:58:40.970Z,17.90
2022-10-30T21:01:09.102Z,17.90
2022-10-30T21:03:36.938Z,17.80
2022-10-30T21:06:06.116Z,17.80
2022-10-30T21:08:33.861Z,17.80
2022-10-30T21:11:02.130Z,17.80
2022-10-30T21:13:31.476Z,17.70
2022-10-30T21:16:02.156Z,17.70
2022-10-30T21:18:30.592Z,17.70
2022-10-30T21:21:01.499Z,17.60
2022-10-30T21:23:29.284Z,17.60
2022-10-30T21:26:00.414Z,17.60
2022-10-30T21:28:28.192Z,17.60
2022-10-30T21:31:01.729Z,17.70
2022-10-30T21:33:31.494Z,17.70
2022-10-30T21:36:07.774Z,17.60
2022-10-30T21:38:41.411Z,17.60
2022-10-30T21:41:09.246Z,17.50
2022-10-30T21:43:36.973Z,17.50
2022-10-30T21:46:08.047Z,17.40
2022-10-30T21:48:35.826Z,17.40
2022-10-30T21:51:11.258Z,17.40
2022-10-30T21:53:39.463Z,17.40
2022-10-30T21:56:09.165Z,17.40
2022-10-30T21:58:36.974Z,17.50
2022-10-30T22:01:07.421Z,17.40
2022-10-30T22:03:35.343Z,17.30
2022-10-30T22:06:07.527Z,17.30
2022-10-30T22:08:35.986Z,17.30
2022-10-30T22:11:04.806Z,17.20
2022-10-30T22:13:32.576Z,17.20
2022-10-30T22:16:00.431Z,17.20
2022-10-30T22:18:29.635Z,17.10
2022-10-30T22:21:01.119Z,17.10
2022-10-30T22:23:29.077Z,17.20
2022-10-30T22:25:57.490Z,17.20
2022-10-30T22:28:25.333Z,17.20
2022-10-30T22:30:53.346Z,17.30
2022-10-30T22:33:21.815Z,17.30
2022-10-30T22:35:50.872Z,17.20
2022-10-30T22:38:18.714Z,17.20
2022-10-30T22:40:46.470Z,17.30
2022-10-30T22:43:14.309Z,17.30
2022-10-30T22:45:42.114Z,17.20
2022-10-30T22:48:09.876Z,17.20
2022-10-30T22:50:39.113Z,17.10
2022-10-30T22:53:08.187Z,17.10
2022-10-30T22:55:35.934Z,17.10
2022-10-30T22:58:04.045Z,17.10
2022-10-30T23:00:32.079Z,17.10
2022-10-30T23:03:00.393Z,17.10
2022-10-30T23:05:28.471Z,17.10
2022-10-30T23:07:56.225Z,17.10
2022-10-30T23:10:25.337Z,17.10
2022-10-30T23:12:53.087Z,17.00
2022-10-30T23:15:20.851Z,17.00
2022-10-30T23:17:49.589Z,17.00
2022-10-30T23:20:17.818Z,17.00
2022-10-30T23:22:45.561Z,17.00
2022-10-30T23:25:13.313Z,16.90
2022-10-30T23:27:42.419Z,16.90
2022-10-30T23:30:11.655Z,17.00
2022-10-30T23:32:39.404Z,17.00
2022-10-30T23:35:07.668Z,17.00
2022-10-30T23:37:35.460Z,17.00
2022-10-30T23:40:03.228Z,17.00
2022-10-30T23:42:30.978Z,16.90
2022-10-30T23:45:00.095Z,16.90
2022-10-30T23:47:27.850Z,16.90
2022-10-30T23:49:55.610Z,16.90
2022-10-30T23:52:23.357Z,16.90
2022-10-30T23:54:51.117Z,16.90
2022-10-30T23:57:18.964Z,16.90
2022-10-30T23:59:47.589Z,16.80
